Time;durP1;ratioP1;P1;durP2;ratioP2;P2;SDS_P1;SDS_P2;PMS_P1;PMS_P2;Temp;Humidity;BMP_temperature;BMP_pressure;BME280_temperature;BME280_humidity;BME280_pressure;Samples;Min_cycle;Max_cycle;Signal;HPM_P1;HPM_P2
2022/02/11 00:25:27;;;;;;;23.67;12.30;;;0.80;99.90;;;;;;21010928;28;20048;-46
2022/02/11 00:35:41;;;;;;;28.90;14.32;;;0.40;99.90;;;;;;21005896;28;20126;-46
2022/02/11 01:06:13;;;;;;;33.57;17.53;;;-0.20;99.90;;;;;;21077830;28;20040;-46
2022/02/11 01:16:21;;;;;;;36.45;17.83;;;-0.10;99.90;;;;;;21136082;27;20495;-45
2022/02/11 02:59:04;;;;;;;28.27;13.82;;;-0.70;99.90;;;;;;21134750;28;20035;-45
2022/02/11 05:02:58;;;;;;;27.65;11.68;;;-1.30;99.90;;;;;;21047051;28;20036;-47
2022/02/11 05:13:01;;;;;;;24.70;12.60;;;-1.30;99.90;;;;;;21048009;28;20081;-46
2022/02/11 05:23:06;;;;;;;25.30;12.60;;;-1.30;99.90;;;;;;21130392;28;20111;-47
2022/02/11 05:33:09;;;;;;;27.40;12.07;;;-1.30;99.90;;;;;;21143488;28;20053;-46
2022/02/11 05:43:13;;;;;;;25.92;11.68;;;-1.30;99.90;;;;;;21112234;28;20155;-47
2022/02/11 05:53:16;;;;;;;26.48;12.43;;;-1.30;99.90;;;;;;21128977;28;20027;-45
2022/02/11 06:03:19;;;;;;;33.47;12.57;;;-1.40;99.90;;;;;;21128372;28;20148;-48
2022/02/11 06:13:23;;;;;;;28.85;13.80;;;-1.50;99.90;;;;;;21127649;28;20450;-47
2022/02/11 06:23:26;;;;;;;29.40;12.48;;;-1.60;99.90;;;;;;21111126;28;20036;-46
2022/02/11 06:33:28;;;;;;;26.75;13.30;;;-1.50;99.90;;;;;;21127061;28;20104;-47
2022/02/11 06:43:31;;;;;;;29.00;13.00;;;-1.40;99.90;;;;;;21111172;28;20035;-47
2022/02/11 06:53:36;;;;;;;32.25;12.93;;;-1.40;99.90;;;;;;21141240;28;20031;-45
2022/02/11 07:03:39;;;;;;;32.63;13.82;;;-1.20;99.90;;;;;;21140706;28;20039;-46
2022/02/11 07:13:41;;;;;;;28.98;13.43;;;-1.00;99.90;;;;;;21139315;28;20421;-45
2022/02/11 07:23:44;;;;;;;33.13;12.40;;;-0.70;99.90;;;;;;21138763;28;20039;-47
2022/02/11 07:33:46;;;;;;;27.30;13.50;;;-0.20;99.90;;;;;;21137746;28;20563;-45
2022/02/11 07:43:49;;;;;;;19.92;11.15;;;0.40;99.90;;;;;;21120488;28;20140;-46
2022/02/11 07:53:52;;;;;;;28.65;15.38;;;1.30;99.90;;;;;;21135422;28;20515;-47
2022/02/11 08:03:56;;;;;;;25.88;11.77;;;1.90;99.90;;;;;;21132101;28;20096;-46
2022/02/11 08:13:59;;;;;;;29.70;16.65;;;1.80;99.90;;;;;;21135105;28;20044;-47
2022/02/11 08:24:02;;;;;;;36.25;16.17;;;2.00;99.90;;;;;;21133825;28;20093;-46
2022/02/11 08:34:05;;;;;;;35.47;19.70;;;2.60;99.90;;;;;;21106792;28;20040;-46
2022/02/11 08:44:07;;;;;;;36.35;17.50;;;3.30;99.90;;;;;;21085848;28;20032;-50
2022/02/11 08:54:10;;;;;;;25.10;14.63;;;4.20;99.90;;;;;;21100485;28;20093;-48
2022/02/11 09:04:13;;;;;;;26.00;10.55;;;5.00;99.90;;;;;;21090062;28;20735;-47
2022/02/11 09:14:15;;;;;;;27.52;11.82;;;5.50;99.90;;;;;;21093552;28;20564;-49
2022/02/11 09:24:18;;;;;;;19.92;11.95;;;5.70;99.90;;;;;;21060003;28;20028;-45
2022/02/11 09:34:20;;;;;;;20.58;11.60;;;6.60;99.90;;;;;;21073089;28;20092;-45
2022/02/11 09:44:25;;;;;;;27.50;17.15;;;7.00;99.90;;;;;;21092459;28;20081;-47
2022/02/11 09:54:29;;;;;;;22.30;12.90;;;7.40;99.90;;;;;;21081203;28;20035;-48
2022/02/11 10:04:33;;;;;;;24.40;14.52;;;8.00;99.90;;;;;;21084810;28;20036;-47
2022/02/11 10:14:36;;;;;;;28.50;15.82;;;7.90;99.90;;;;;;21083499;28;20043;-47
2022/02/11 10:24:39;;;;;;;30.90;16.40;;;7.50;99.90;;;;;;21078149;28;20032;-47
2022/02/11 10:34:50;;;;;;;26.63;14.43;;;8.70;99.90;;;;;;21081461;28;20032;-48
2022/02/11 10:44:53;;;;;;;21.30;11.98;;;9.30;99.90;;;;;;21141717;28;20027;-47
2022/02/11 10:54:57;;;;;;;26.52;14.80;;;9.50;99.90;;;;;;21103724;28;20040;-47
2022/02/11 11:05:00;;;;;;;22.48;13.75;;;9.20;99.90;;;;;;21089344;28;20391;-47
2022/02/11 11:15:03;;;;;;;26.38;16.63;;;9.90;99.90;;;;;;21103225;28;20044;-46
2022/02/11 11:25:09;;;;;;;26.45;15.45;;;11.00;99.90;;;;;;21070296;28;20081;-50
2022/02/11 11:35:23;;;;;;;25.25;14.90;;;10.40;99.90;;;;;;21091082;28;20044;-49
2022/02/11 11:45:29;;;;;;;32.25;18.08;;;9.00;99.90;;;;;;21134023;28;20100;-49
2022/02/11 11:55:37;;;;;;;33.67;18.27;;;8.00;99.90;;;;;;21136232;28;20092;-48
2022/02/11 12:05:53;;;;;;;31.00;17.65;;;7.60;99.90;;;;;;21135628;28;20035;-48
2022/02/11 12:15:56;;;;;;;30.23;17.35;;;7.50;99.90;;;;;;21101645;28;20421;-48
2022/02/11 12:36:18;;;;;;;;;;;7.20;99.90;;;;;;21131255;28;20085;-50
2022/02/11 12:46:21;;;;;;;28.15;16.75;;;7.40;99.90;;;;;;21130998;28;19912;-47
2022/02/11 12:56:32;;;;;;;30.90;18.52;;;7.40;99.90;;;;;;21131385;28;20395;-49
2022/02/11 13:06:35;;;;;;;30.25;18.02;;;7.10;99.90;;;;;;21130734;28;20035;-47
2022/02/11 13:16:38;;;;;;;32.22;19.15;;;7.10;99.90;;;;;;21113862;28;20071;-49
2022/02/11 13:26:41;;;;;;;28.13;16.35;;;7.00;99.90;;;;;;21129331;28;20058;-48
2022/02/11 13:36:48;;;;;;;30.58;18.23;;;7.10;99.90;;;;;;21112194;28;20387;-48
2022/02/11 13:46:55;;;;;;;31.70;19.38;;;7.30;99.90;;;;;;21128045;28;20471;-50
2022/02/11 13:57:00;;;;;;;34.60;18.02;;;7.50;99.90;;;;;;21120565;28;20437;-48
2022/02/11 14:07:04;;;;;;;32.78;18.20;;;7.60;99.90;;;;;;21144774;28;20043;-48
2022/02/11 14:17:07;;;;;;;28.40;18.10;;;7.40;99.90;;;;;;21143978;28;20073;-47
2022/02/11 14:27:10;;;;;;;31.40;18.88;;;7.60;99.90;;;;;;21143380;28;20032;-48
2022/02/11 14:37:13;;;;;;;25.75;12.60;;;7.60;99.90;;;;;;21142697;28;20084;-48
2022/02/11 14:47:15;;;;;;;16.13;6.50;;;7.50;99.90;;;;;;21124353;28;20039;-47
2022/02/11 14:57:18;;;;;;;20.00;11.07;;;7.20;98.90;;;;;;21124227;28;20626;-48
2022/02/11 15:07:21;;;;;;;14.55;8.38;;;7.30;99.90;;;;;;21139053;28;20482;-49
2022/02/11 15:17:23;;;;;;;22.83;11.88;;;7.40;99.70;;;;;;21139210;28;20423;-48
2022/02/11 15:27:26;;;;;;;18.25;7.13;;;6.90;99.90;;;;;;21138911;28;20093;-48
2022/02/11 15:37:29;;;;;;;8.23;3.88;;;6.60;99.30;;;;;;21120906;28;20031;-47
2022/02/11 15:47:32;;;;;;;7.03;3.42;;;6.40;96.00;;;;;;21136871;28;20035;-47
2022/02/11 15:57:34;;;;;;;8.02;3.33;;;6.10;95.80;;;;;;21119184;28;20444;-47
2022/02/11 16:07:37;;;;;;;9.07;4.22;;;5.70;96.40;;;;;;21135370;28;20040;-47
2022/02/11 16:18:00;;;;;;;7.22;3.22;;;5.30;96.50;;;;;;21134247;28;20093;-47
2022/02/11 16:28:05;;;;;;;7.43;3.30;;;4.90;97.20;;;;;;21133448;28;20107;-48
2022/02/11 16:38:10;;;;;;;5.75;2.70;;;4.50;97.40;;;;;;21133865;28;20044;-47
2022/02/11 16:48:13;;;;;;;5.85;2.10;;;4.20;96.70;;;;;;21114986;28;20036;-45
2022/02/11 16:58:18;;;;;;;4.45;2.20;;;4.20;96.20;;;;;;21131701;28;20055;-46
2022/02/11 17:08:22;;;;;;;7.68;2.38;;;3.90;95.70;;;;;;21130902;28;20082;-46
2022/02/11 17:18:26;;;;;;;6.00;2.63;;;3.70;95.90;;;;;;21113303;28;20051;-48
2022/02/11 17:28:28;;;;;;;6.15;2.50;;;3.40;96.70;;;;;;21113421;28;20478;-47
2022/02/11 17:38:32;;;;;;;7.10;2.47;;;3.00;97.20;;;;;;21112916;28;20101;-50
2022/02/11 17:48:34;;;;;;;3.75;2.13;;;3.00;96.10;;;;;;21129193;28;20093;-49
2022/02/11 17:58:37;;;;;;;2.10;0.90;;;2.80;95.30;;;;;;21128569;28;20039;-46
2022/02/11 18:08:40;;;;;;;4.20;1.13;;;2.80;92.40;;;;;;21127908;28;20093;-47
2022/02/11 18:18:44;;;;;;;1.27;0.65;;;2.80;90.60;;;;;;21128239;28;20113;-46
2022/02/11 18:28:49;;;;;;;2.08;0.60;;;2.80;88.30;;;;;;21128919;28;20479;-46
2022/02/11 18:38:52;;;;;;;0.55;0.32;;;2.60;83.70;;;;;;21128506;28;20089;-47
2022/02/11 18:48:54;;;;;;;0.60;0.22;;;2.50;81.90;;;;;;21142242;28;20093;-47
2022/02/11 19:00:25;;;;;;;1.23;0.20;;;2.30;78.00;;;;;;21141172;28;20080;-47
2022/02/11 19:09:20;;;;;;;1.05;0.30;;;2.20;75.40;;;;;;21141549;28;20031;-46
2022/02/11 19:19:23;;;;;;;0.75;0.13;;;1.90;72.00;;;;;;21139971;28;20090;-47
2022/02/11 19:29:25;;;;;;;1.75;0.10;;;2.00;69.00;;;;;;21122418;28;20084;-46
2022/02/11 19:39:28;;;;;;;0.30;0.10;;;1.90;66.70;;;;;;21138042;28;20039;-46
2022/02/11 19:49:30;;;;;;;0.50;0.17;;;1.80;67.10;;;;;;21137080;28;20035;-46
2022/02/11 19:59:33;;;;;;;0.10;0.10;;;1.70;66.30;;;;;;21136082;28;20627;-46
2022/02/11 20:09:36;;;;;;;0.00;0.00;;;1.60;66.20;;;;;;21135365;28;20031;-46
2022/02/11 20:19:41;;;;;;;0.10;0.10;;;1.60;63.20;;;;;;21118135;28;20051;-46
2022/02/11 20:29:44;;;;;;;0.10;0.00;;;1.40;64.00;;;;;;21133806;28;20441;-45
2022/02/11 20:39:47;;;;;;;0.10;0.00;;;1.30;63.30;;;;;;21116766;28;20036;-46
2022/02/11 20:50:32;;;;;;;0.10;0.00;;;1.10;63.00;;;;;;21132492;28;20085;-46
2022/02/11 21:00:13;;;;;;;2.47;0.05;;;1.00;62.30;;;;;;21128232;28;20043;-46
2022/02/11 21:10:16;;;;;;;0.22;0.00;;;1.00;60.10;;;;;;21130109;28;20036;-45
2022/02/11 21:20:19;;;;;;;0.10;0.00;;;1.20;58.80;;;;;;21130374;28;20043;-46
2022/02/11 21:30:24;;;;;;;0.20;0.00;;;1.30;59.30;;;;;;21113531;28;20043;-46
2022/02/11 21:40:26;;;;;;;0.30;0.10;;;1.10;58.40;;;;;;21130095;28;20413;-45
2022/02/11 21:50:29;;;;;;;0.30;0.10;;;0.90;58.10;;;;;;21128831;28;20398;-49
2022/02/11 22:00:32;;;;;;;3.97;0.22;;;0.90;57.60;;;;;;21129036;28;20127;-45
2022/02/11 22:10:36;;;;;;;0.00;0.00;;;1.00;56.90;;;;;;21128615;28;20388;-46
2022/02/11 22:20:38;;;;;;;0.10;0.00;;;0.80;57.30;;;;;;21141118;28;20522;-45
2022/02/11 22:30:41;;;;;;;1.75;0.00;;;0.70;55.50;;;;;;21126824;28;20028;-46
2022/02/11 22:40:43;;;;;;;0.10;0.00;;;0.50;55.50;;;;;;21143363;28;20039;-44
2022/02/11 23:01:09;;;;;;;0.10;0.00;;;0.20;56.30;;;;;;21120543;28;20035;-44
2022/02/11 23:11:16;;;;;;;0.00;0.00;;;-0.10;56.00;;;;;;20980126;28;20044;-44
2022/02/11 23:21:20;;;;;;;0.00;0.00;;;-0.10;55.60;;;;;;20963089;28;20242;-47
2022/02/11 23:31:22;;;;;;;0.20;0.00;;;-0.20;56.60;;;;;;20957172;28;20064;-51
2022/02/11 23:41:25;;;;;;;0.20;0.10;;;-0.30;56.40;;;;;;20972390;28;20044;-47
2022/02/11 23:51:27;;;;;;;0.22;0.00;;;-0.30;56.30;;;;;;21137437;28;20036;-44
